Time;durP1;ratioP1;P1;durP2;ratioP2;P2;SDS_P1;SDS_P2;PMS_P1;PMS_P2;Temp;Humidity;BMP_temperature;BMP_pressure;BME280_temperature;BME280_humidity;BME280_pressure;Samples;Min_cycle;Max_cycle;Signal;HPM_P1;HPM_P2
2021/12/12 00:01:49;;;;;;;28.33;13.10;;;3.60;99.90;;;;;;4157857;28;20759;-64
2021/12/12 00:03:56;;;;;;;32.83;13.70;;;3.60;99.90;;;;;;4158522;28;20745;-71
2021/12/12 00:06:00;;;;;;;36.20;14.27;;;3.60;99.90;;;;;;4157546;28;20840;-73
2021/12/12 00:08:03;;;;;;;35.03;15.73;;;3.70;99.90;;;;;;4159028;28;20729;-64
2021/12/12 00:10:27;;;;;;;28.87;12.87;;;3.70;99.90;;;;;;4157398;28;20610;-65
2021/12/12 00:12:33;;;;;;;31.40;13.13;;;3.70;99.90;;;;;;4158703;28;20679;-63
2021/12/12 00:14:35;;;;;;;29.70;13.37;;;3.70;99.90;;;;;;4157597;28;20259;-63
2021/12/12 00:16:37;;;;;;;33.10;15.03;;;3.70;99.90;;;;;;4158926;28;20255;-63
2021/12/12 00:18:39;;;;;;;34.30;13.20;;;3.70;99.90;;;;;;4157032;28;20271;-64
2021/12/12 00:20:40;;;;;;;31.37;13.23;;;3.70;99.90;;;;;;4159932;28;20255;-63
2021/12/12 00:22:41;;;;;;;29.27;13.00;;;3.70;99.90;;;;;;4157413;28;20715;-64
2021/12/12 00:24:43;;;;;;;27.73;12.27;;;3.70;99.90;;;;;;4158562;28;20731;-63
2021/12/12 00:26:48;;;;;;;29.53;12.87;;;3.70;99.90;;;;;;4157309;28;20352;-63
2021/12/12 00:28:50;;;;;;;30.57;12.93;;;3.70;99.90;;;;;;4158563;28;20289;-63
2021/12/12 00:30:56;;;;;;;28.37;12.33;;;3.80;99.90;;;;;;4157705;28;20275;-62
2021/12/12 00:32:57;;;;;;;31.80;13.10;;;3.80;99.90;;;;;;4158288;28;20747;-63
2021/12/12 00:35:03;;;;;;;31.87;13.47;;;3.80;99.90;;;;;;4157077;28;20267;-63
2021/12/12 00:37:07;;;;;;;33.47;11.83;;;3.80;99.90;;;;;;4158650;28;20271;-65
2021/12/12 00:39:26;;;;;;;29.73;12.90;;;3.80;99.90;;;;;;4157466;28;20336;-62
2021/12/12 00:41:34;;;;;;;29.40;13.10;;;3.70;99.90;;;;;;4158214;28;20826;-62
2021/12/12 00:43:50;;;;;;;31.40;13.57;;;3.70;99.90;;;;;;4157218;28;20691;-64
2021/12/12 00:45:54;;;;;;;29.57;12.53;;;3.70;99.90;;;;;;4158309;28;20295;-62
2021/12/12 00:47:56;;;;;;;29.47;12.60;;;3.80;99.90;;;;;;4157074;28;20304;-63
2021/12/12 00:49:57;;;;;;;26.07;12.10;;;3.80;99.90;;;;;;4157530;28;20255;-63
2021/12/12 00:51:59;;;;;;;28.57;14.33;;;3.80;99.90;;;;;;4157593;28;20298;-63
2021/12/12 00:54:00;;;;;;;26.67;12.77;;;3.70;99.90;;;;;;4157430;28;20278;-62
2021/12/12 00:56:02;;;;;;;26.23;11.97;;;3.70;99.90;;;;;;4157932;28;20320;-63
2021/12/12 00:58:08;;;;;;;28.70;12.17;;;3.70;99.90;;;;;;4157017;28;20322;-63
2021/12/12 01:00:12;;;;;;;29.67;12.97;;;3.70;99.90;;;;;;4158162;28;20313;-63
2021/12/12 01:02:20;;;;;;;28.50;13.03;;;3.80;99.90;;;;;;4156661;28;20263;-63
2021/12/12 01:04:28;;;;;;;26.43;11.97;;;3.80;99.90;;;;;;4157899;28;20305;-63
2021/12/12 01:06:30;;;;;;;28.80;12.30;;;3.80;99.90;;;;;;4157056;28;20290;-62
2021/12/12 01:08:32;;;;;;;24.47;12.27;;;3.80;99.90;;;;;;4157986;28;20267;-61
2021/12/12 01:10:57;;;;;;;27.23;11.97;;;3.70;99.90;;;;;;4156918;28;20839;-62
2021/12/12 01:13:00;;;;;;;30.57;12.10;;;3.80;99.90;;;;;;4157900;28;20325;-62
2021/12/12 01:15:12;;;;;;;23.03;12.47;;;3.80;99.90;;;;;;4156780;28;20325;-62
2021/12/12 01:17:22;;;;;;;27.20;12.13;;;3.80;99.90;;;;;;4157737;28;20275;-65
2021/12/12 01:19:36;;;;;;;30.43;12.50;;;3.80;99.90;;;;;;4156215;28;20313;-64
2021/12/12 01:21:43;;;;;;;28.10;12.87;;;3.80;99.90;;;;;;4158138;28;20270;-61
2021/12/12 01:23:57;;;;;;;25.70;12.20;;;3.80;99.90;;;;;;4156496;28;20289;-61
2021/12/12 01:25:59;;;;;;;23.67;11.37;;;3.80;99.90;;;;;;4157775;28;20701;-61
2021/12/12 01:28:00;;;;;;;28.73;12.87;;;3.80;99.90;;;;;;4156631;28;20314;-62
2021/12/12 01:30:04;;;;;;;25.30;11.37;;;3.80;99.90;;;;;;4158118;28;20274;-62
2021/12/12 01:32:12;;;;;;;24.37;11.93;;;3.80;99.90;;;;;;4156503;28;20263;-62
2021/12/12 01:34:18;;;;;;;26.47;12.27;;;3.80;99.90;;;;;;4157161;28;20270;-62
2021/12/12 01:36:26;;;;;;;25.67;11.90;;;3.80;99.90;;;;;;4156452;28;20274;-62
2021/12/12 01:40:51;;;;;;;25.40;11.80;;;3.80;99.90;;;;;;4156653;28;20340;-62
2021/12/12 01:43:11;;;;;;;25.90;11.20;;;3.80;99.90;;;;;;4157986;28;20316;-62
2021/12/12 01:45:25;;;;;;;24.10;12.77;;;3.80;99.90;;;;;;4156434;28;20274;-62
2021/12/12 01:47:33;;;;;;;24.47;11.60;;;3.80;99.90;;;;;;4161064;28;20317;-71
2021/12/12 01:49:39;;;;;;;20.97;10.80;;;3.80;99.90;;;;;;4159609;28;20678;-62
2021/12/12 01:51:42;;;;;;;22.37;12.00;;;3.80;99.90;;;;;;4160841;28;20686;-62
2021/12/12 01:53:51;;;;;;;19.97;10.07;;;3.80;99.90;;;;;;4159749;28;20290;-63
2021/12/12 01:56:18;;;;;;;20.20;10.03;;;3.80;99.90;;;;;;4161068;28;20332;-63
2021/12/12 01:58:24;;;;;;;21.67;10.83;;;3.80;99.90;;;;;;4159096;28;20290;-61
2021/12/12 02:00:28;;;;;;;20.87;9.53;;;3.80;99.90;;;;;;4160742;28;20278;-69
2021/12/12 02:02:33;;;;;;;21.90;10.43;;;3.90;99.90;;;;;;4159589;28;20670;-62
2021/12/12 02:04:44;;;;;;;18.83;9.97;;;3.80;99.90;;;;;;4160823;28;20329;-62
2021/12/12 02:06:48;;;;;;;20.33;10.20;;;3.80;99.90;;;;;;4159645;28;20767;-62
2021/12/12 02:08:56;;;;;;;19.13;10.13;;;3.80;99.90;;;;;;4160364;28;20294;-62
2021/12/12 02:11:01;;;;;;;20.47;10.13;;;3.80;99.90;;;;;;4159449;28;20333;-62
2021/12/12 02:13:06;;;;;;;21.67;10.70;;;3.80;99.90;;;;;;4160426;28;20324;-61
2021/12/12 02:15:10;;;;;;;21.30;9.83;;;3.90;99.90;;;;;;4159269;28;20278;-62
2021/12/12 02:17:30;;;;;;;17.97;9.07;;;3.90;99.90;;;;;;4160296;28;20305;-62
2021/12/12 02:19:52;;;;;;;18.33;9.73;;;3.90;99.90;;;;;;4159443;28;20271;-63
2021/12/12 02:22:20;;;;;;;18.60;8.83;;;3.90;99.90;;;;;;4160636;28;20278;-62
2021/12/12 02:36:31;;;;;;;15.37;8.17;;;3.90;99.90;;;;;;4168555;28;20642;-62
2021/12/12 02:38:32;;;;;;;15.73;8.67;;;3.90;99.90;;;;;;4160713;28;20764;-62
2021/12/12 02:40:42;;;;;;;16.07;8.37;;;3.90;99.90;;;;;;4159394;28;20682;-67
2021/12/12 02:42:44;;;;;;;16.40;8.70;;;3.90;99.90;;;;;;4159855;28;21150;-64
2021/12/12 02:44:45;;;;;;;17.07;8.67;;;3.90;99.90;;;;;;4159258;28;20293;-61
2021/12/12 02:46:48;;;;;;;16.33;8.93;;;3.90;99.90;;;;;;4159587;28;20351;-62
2021/12/12 02:48:52;;;;;;;16.27;8.37;;;3.90;99.90;;;;;;4158938;28;20806;-63
2021/12/12 02:50:55;;;;;;;16.97;8.93;;;3.90;99.90;;;;;;4159450;28;20749;-62
2021/12/12 02:53:01;;;;;;;14.93;8.33;;;3.90;99.90;;;;;;4159439;28;20872;-71
2021/12/12 02:55:30;;;;;;;14.80;7.63;;;4.00;99.90;;;;;;4159364;28;20278;-63
2021/12/12 02:57:32;;;;;;;15.47;8.13;;;4.00;99.90;;;;;;4157642;28;20279;-65
2021/12/12 02:59:34;;;;;;;16.53;8.37;;;3.90;99.90;;;;;;4157613;28;20279;-63
2021/12/12 03:01:57;;;;;;;13.77;8.87;;;4.00;99.90;;;;;;4158975;28;20588;-65
2021/12/12 03:03:58;;;;;;;13.23;7.70;;;4.00;99.90;;;;;;4159084;28;20762;-62
2021/12/12 03:06:00;;;;;;;14.93;7.87;;;4.00;99.90;;;;;;4158977;28;20372;-63
2021/12/12 03:08:01;;;;;;;15.00;7.83;;;4.00;99.90;;;;;;4159688;28;20329;-62
2021/12/12 03:10:05;;;;;;;17.13;8.03;;;4.00;99.90;;;;;;4159325;28;20263;-62
2021/12/12 03:12:20;;;;;;;12.97;7.33;;;4.00;99.90;;;;;;4158347;28;20666;-63
2021/12/12 03:14:21;;;;;;;12.90;7.23;;;4.00;99.90;;;;;;4159551;28;20275;-63
2021/12/12 03:16:24;;;;;;;15.00;7.57;;;4.00;99.90;;;;;;4158366;28;20259;-63
2021/12/12 03:18:40;;;;;;;14.77;7.87;;;4.00;99.90;;;;;;4159911;28;20316;-65
2021/12/12 03:20:48;;;;;;;14.33;7.53;;;4.00;99.90;;;;;;4158607;28;20337;-64
2021/12/12 03:22:58;;;;;;;14.23;7.47;;;4.00;99.90;;;;;;4159281;28;20267;-67
2021/12/12 03:24:59;;;;;;;13.53;7.63;;;4.00;99.90;;;;;;4158249;28;20271;-64
2021/12/12 03:27:02;;;;;;;12.60;7.23;;;4.00;99.90;;;;;;4159424;28;20075;-62
2021/12/12 03:29:06;;;;;;;12.90;7.20;;;4.00;99.90;;;;;;4158074;28;20279;-67
2021/12/12 03:31:11;;;;;;;13.90;7.57;;;4.00;99.90;;;;;;4158022;28;20283;-63
2021/12/12 03:33:12;;;;;;;12.37;6.90;;;4.00;99.90;;;;;;4157999;28;20282;-62
2021/12/12 03:35:14;;;;;;;17.20;8.37;;;4.00;99.90;;;;;;4159619;28;20275;-63
2021/12/12 03:37:18;;;;;;;15.53;8.70;;;4.00;99.90;;;;;;4158520;28;20263;-63
2021/12/12 03:39:26;;;;;;;13.47;7.20;;;4.00;99.90;;;;;;4159320;28;20356;-62
2021/12/12 03:41:33;;;;;;;11.87;6.70;;;4.00;99.90;;;;;;4158640;28;20278;-68
2021/12/12 03:43:35;;;;;;;12.93;6.93;;;4.00;99.90;;;;;;4159340;28;20328;-63
2021/12/12 03:45:37;;;;;;;10.80;6.53;;;4.00;99.90;;;;;;4158222;28;20275;-62
2021/12/12 03:47:45;;;;;;;13.27;7.33;;;4.00;99.90;;;;;;4159110;28;20357;-63
2021/12/12 03:49:47;;;;;;;12.47;6.60;;;4.00;99.90;;;;;;4157541;28;20313;-63
2021/12/12 03:51:49;;;;;;;12.63;7.10;;;4.00;99.90;;;;;;4159241;28;20286;-63
2021/12/12 03:53:50;;;;;;;12.43;8.43;;;4.00;99.90;;;;;;4157323;28;20266;-68
2021/12/12 03:55:53;;;;;;;11.73;6.97;;;4.00;99.90;;;;;;4157927;28;20290;-62
2021/12/12 03:57:54;;;;;;;12.67;7.10;;;4.10;99.90;;;;;;4157614;28;20707;-63
2021/12/12 03:59:56;;;;;;;10.50;6.40;;;4.10;99.90;;;;;;4157756;28;20317;-63
2021/12/12 04:01:57;;;;;;;14.07;6.67;;;4.00;99.90;;;;;;4158718;28;20279;-63
2021/12/12 04:04:05;;;;;;;11.67;7.23;;;4.10;99.90;;;;;;4157028;28;20701;-63
2021/12/12 04:06:11;;;;;;;12.03;6.80;;;4.10;99.90;;;;;;4158659;28;20931;-63
2021/12/12 04:08:12;;;;;;;10.27;6.60;;;4.10;99.90;;;;;;4157443;28;20688;-68
2021/12/12 04:10:19;;;;;;;10.37;6.53;;;4.10;99.90;;;;;;4158707;28;20259;-63
2021/12/12 04:12:22;;;;;;;12.60;6.93;;;4.10;99.90;;;;;;4157715;28;20259;-63
2021/12/12 04:14:24;;;;;;;12.43;7.33;;;4.10;99.90;;;;;;4158871;28;20279;-62
2021/12/12 04:16:27;;;;;;;9.93;6.47;;;4.10;99.90;;;;;;4157148;28;20605;-62
2021/12/12 04:18:29;;;;;;;10.50;6.30;;;4.10;99.90;;;;;;4158626;28;20308;-63
2021/12/12 04:20:34;;;;;;;8.17;6.20;;;4.10;99.90;;;;;;4157660;28;20271;-62
2021/12/12 04:22:35;;;;;;;10.90;5.77;;;4.10;99.90;;;;;;4158569;28;20745;-62
2021/12/12 04:24:40;;;;;;;11.37;6.73;;;4.10;99.90;;;;;;4157001;28;20328;-63
2021/12/12 04:26:42;;;;;;;10.27;6.37;;;4.10;99.90;;;;;;4158436;28;20282;-62
2021/12/12 04:28:45;;;;;;;10.40;5.83;;;4.00;99.90;;;;;;4157505;28;20266;-64
2021/12/12 04:30:46;;;;;;;12.00;6.40;;;4.10;99.90;;;;;;4158236;28;20601;-65
2021/12/12 04:32:47;;;;;;;9.73;5.90;;;4.10;99.90;;;;;;4157071;28;20278;-63
2021/12/12 04:34:55;;;;;;;9.47;5.40;;;4.10;99.90;;;;;;4157215;28;20774;-63
2021/12/12 04:37:01;;;;;;;9.93;5.87;;;4.00;99.90;;;;;;4158065;28;20251;-64
2021/12/12 04:39:26;;;;;;;10.87;6.07;;;4.10;99.90;;;;;;4157755;28;20266;-63
2021/12/12 04:41:27;;;;;;;9.40;5.70;;;4.00;99.90;;;;;;4156842;28;20341;-62
2021/12/12 04:43:28;;;;;;;8.47;5.63;;;4.00;99.90;;;;;;4157758;28;20313;-63
2021/12/12 04:46:03;;;;;;;6.90;4.63;;;4.10;99.90;;;;;;4157315;28;20316;-62
2021/12/12 04:51:08;;;;;;;8.07;5.17;;;4.10;99.90;;;;;;4156970;28;20290;-65
2021/12/12 04:53:18;;;;;;;8.47;4.70;;;4.10;99.90;;;;;;4157877;28;20739;-63
2021/12/12 04:55:52;;;;;;;7.82;4.95;;;4.10;99.90;;;;;;4156695;28;20317;-64
2021/12/12 04:58:23;;;;;;;8.33;4.93;;;4.10;99.90;;;;;;4158206;28;20025;-62
2021/12/12 05:00:54;;;;;;;7.15;4.70;;;4.00;99.90;;;;;;4156158;28;20344;-61
2021/12/12 05:03:14;;;;;;;7.80;5.10;;;4.00;99.90;;;;;;4155673;28;20033;-66
2021/12/12 05:05:24;;;;;;;9.53;5.17;;;4.00;99.90;;;;;;4157775;28;20266;-70
2021/12/12 05:07:36;;;;;;;;;;;4.00;99.90;;;;;;4157913;28;20325;-62
2021/12/12 05:10:11;;;;;;;9.20;5.10;;;4.00;99.90;;;;;;4157379;28;20515;-61
2021/12/12 05:12:23;;;;;;;8.83;4.90;;;4.00;99.90;;;;;;4152352;28;20259;-62
2021/12/12 05:14:28;;;;;;;8.23;4.90;;;4.00;99.90;;;;;;4158128;28;20324;-62
2021/12/12 05:16:34;;;;;;;8.00;5.40;;;4.00;99.90;;;;;;4155879;28;20366;-62
2021/12/12 05:18:47;;;;;;;8.33;5.40;;;4.00;99.90;;;;;;4157811;28;20317;-62
2021/12/12 05:20:55;;;;;;;8.00;5.00;;;4.00;99.90;;;;;;4155716;28;20251;-63
2021/12/12 05:23:00;;;;;;;8.33;4.83;;;4.00;99.90;;;;;;4157546;28;20825;-63
2021/12/12 05:25:07;;;;;;;5.93;4.23;;;4.00;99.90;;;;;;4156393;28;20254;-62
2021/12/12 05:27:18;;;;;;;7.13;4.57;;;4.00;99.90;;;;;;4157660;28;20767;-62
2021/12/12 05:29:23;;;;;;;5.80;3.80;;;4.00;99.90;;;;;;4156033;28;20278;-62
2021/12/12 05:31:25;;;;;;;6.73;4.03;;;4.00;99.90;;;;;;4158000;28;20282;-63
2021/12/12 05:33:29;;;;;;;8.07;4.40;;;4.00;99.90;;;;;;4156326;28;20723;-63
2021/12/12 05:35:33;;;;;;;5.20;3.80;;;4.00;99.90;;;;;;4157124;28;20683;-67
2021/12/12 05:37:35;;;;;;;6.73;4.10;;;4.00;99.90;;;;;;4157149;28;20436;-63
2021/12/12 05:39:37;;;;;;;6.10;4.00;;;4.00;99.90;;;;;;4156712;28;20329;-62
2021/12/12 05:41:39;;;;;;;7.40;4.60;;;4.00;99.90;;;;;;4156739;28;20262;-62
2021/12/12 05:43:40;;;;;;;8.10;4.90;;;4.00;99.90;;;;;;4156298;28;20279;-64
2021/12/12 05:45:44;;;;;;;5.60;3.87;;;4.00;99.90;;;;;;4157021;28;20325;-62
2021/12/12 05:47:45;;;;;;;8.47;4.00;;;4.00;99.90;;;;;;4156256;28;20870;-67
2021/12/12 05:49:47;;;;;;;6.83;4.03;;;4.00;99.90;;;;;;4157131;28;20267;-62
2021/12/12 05:51:48;;;;;;;6.03;3.77;;;4.00;99.90;;;;;;4155982;28;20352;-62
2021/12/12 05:53:54;;;;;;;6.40;4.53;;;4.00;99.90;;;;;;4157726;28;20785;-62
2021/12/12 05:55:57;;;;;;;7.20;3.83;;;4.00;99.90;;;;;;4156121;28;20376;-62
2021/12/12 05:58:01;;;;;;;7.00;3.83;;;4.00;99.90;;;;;;4157606;28;20715;-61
2021/12/12 06:00:09;;;;;;;6.27;4.20;;;4.00;99.90;;;;;;4155736;28;20345;-71
2021/12/12 06:02:10;;;;;;;8.10;4.20;;;4.00;99.90;;;;;;4157566;28;20266;-62
2021/12/12 06:04:11;;;;;;;6.37;3.73;;;4.00;99.90;;;;;;4155546;28;20270;-66
2021/12/12 06:06:17;;;;;;;7.30;4.03;;;4.00;99.90;;;;;;4157580;28;20278;-61
2021/12/12 06:08:20;;;;;;;5.33;4.00;;;4.00;99.90;;;;;;4156192;28;20286;-61
2021/12/12 06:10:23;;;;;;;5.03;3.80;;;4.00;99.90;;;;;;4157255;28;20333;-62
2021/12/12 06:12:25;;;;;;;6.77;4.17;;;4.00;99.90;;;;;;4156062;28;20297;-62
2021/12/12 06:14:29;;;;;;;7.37;4.10;;;4.00;99.90;;;;;;4157086;28;20332;-61
2021/12/12 06:16:32;;;;;;;4.87;3.20;;;4.00;99.90;;;;;;4156224;28;20270;-62
2021/12/12 06:18:35;;;;;;;6.43;4.07;;;4.00;99.90;;;;;;4155993;28;21058;-65
2021/12/12 06:20:37;;;;;;;5.03;3.47;;;4.00;99.90;;;;;;4156655;28;20316;-62
2021/12/12 06:22:38;;;;;;;6.63;4.03;;;4.00;99.90;;;;;;4156293;28;20342;-62
2021/12/12 06:24:40;;;;;;;6.53;4.10;;;4.10;99.90;;;;;;4156762;28;20325;-62
2021/12/12 06:26:42;;;;;;;3.77;3.23;;;4.10;99.90;;;;;;4155624;28;20750;-63
2021/12/12 06:28:43;;;;;;;5.20;3.50;;;4.10;99.90;;;;;;4157030;28;20271;-63
2021/12/12 06:30:44;;;;;;;6.57;3.50;;;4.10;99.90;;;;;;4155809;28;20271;-65
2021/12/12 06:32:47;;;;;;;6.83;3.60;;;4.10;99.90;;;;;;4159790;28;20420;-62
2021/12/12 06:34:51;;;;;;;4.17;3.10;;;4.10;99.90;;;;;;4158749;28;20333;-70
2021/12/12 06:36:53;;;;;;;7.60;3.80;;;4.00;99.90;;;;;;4160492;28;20279;-63
2021/12/12 06:38:55;;;;;;;7.80;3.60;;;4.10;99.90;;;;;;4159353;28;20274;-63
2021/12/12 06:40:58;;;;;;;5.43;3.60;;;4.10;99.90;;;;;;4160169;28;20356;-62
2021/12/12 06:43:02;;;;;;;5.60;3.87;;;4.10;99.90;;;;;;4158776;28;20337;-62
2021/12/12 06:45:07;;;;;;;6.37;3.90;;;4.10;99.90;;;;;;4159794;28;20786;-62
2021/12/12 06:47:12;;;;;;;6.17;4.10;;;4.10;99.90;;;;;;4158473;28;20352;-64
2021/12/12 06:49:15;;;;;;;6.00;4.00;;;4.10;99.90;;;;;;4159483;28;20329;-63
2021/12/12 06:51:17;;;;;;;6.10;3.87;;;4.10;99.90;;;;;;4158588;28;20663;-63
2021/12/12 06:53:21;;;;;;;5.67;3.53;;;4.00;99.90;;;;;;4159496;28;20316;-74
2021/12/12 06:55:23;;;;;;;5.30;3.80;;;4.10;99.90;;;;;;4158882;28;20665;-62
2021/12/12 06:57:24;;;;;;;5.37;3.57;;;4.10;99.90;;;;;;4159125;28;20332;-73
2021/12/12 06:59:30;;;;;;;7.37;4.07;;;4.10;99.90;;;;;;4159189;28;20246;-64
2021/12/12 07:01:33;;;;;;;5.63;4.33;;;4.10;99.90;;;;;;4158354;28;20316;-64
2021/12/12 07:03:36;;;;;;;7.40;4.50;;;4.10;99.90;;;;;;4159012;28;20333;-69
2021/12/12 07:05:37;;;;;;;6.53;3.93;;;4.00;99.90;;;;;;4158247;28;20600;-62
2021/12/12 07:07:38;;;;;;;6.03;3.87;;;4.10;99.90;;;;;;4159903;28;20758;-63
2021/12/12 07:09:40;;;;;;;5.57;3.57;;;4.00;99.90;;;;;;4158120;28;20274;-63
2021/12/12 07:11:42;;;;;;;5.97;3.90;;;4.10;99.90;;;;;;4159207;28;20275;-63
2021/12/12 07:13:45;;;;;;;6.63;4.40;;;4.10;99.90;;;;;;4158108;28;20743;-62
2021/12/12 07:15:50;;;;;;;6.33;4.47;;;4.10;99.90;;;;;;4159664;28;20267;-64
2021/12/12 07:17:54;;;;;;;6.93;3.20;;;4.10;99.90;;;;;;4158306;28;20336;-65
2021/12/12 07:19:56;;;;;;;4.53;3.43;;;4.10;99.90;;;;;;4159113;28;20612;-62
2021/12/12 07:21:59;;;;;;;7.60;4.80;;;4.10;99.90;;;;;;4158032;28;20327;-65
2021/12/12 07:24:03;;;;;;;7.37;4.57;;;4.10;99.90;;;;;;4159352;28;20324;-63
2021/12/12 07:26:07;;;;;;;7.37;4.30;;;4.20;99.90;;;;;;4158058;28;20271;-65
2021/12/12 07:28:08;;;;;;;5.23;3.90;;;4.20;99.90;;;;;;4159040;28;20364;-63
2021/12/12 07:30:10;;;;;;;6.27;3.67;;;4.20;99.90;;;;;;4157868;28;20769;-69
2021/12/12 07:32:14;;;;;;;4.20;3.00;;;4.20;99.90;;;;;;4158722;28;20263;-61
2021/12/12 07:34:16;;;;;;;3.73;2.97;;;4.20;99.90;;;;;;4157922;28;20763;-63
2021/12/12 07:36:20;;;;;;;4.80;3.53;;;4.20;99.90;;;;;;4158414;28;20271;-67
2021/12/12 07:38:21;;;;;;;5.73;3.57;;;4.30;99.90;;;;;;4159009;28;20662;-63
2021/12/12 07:40:22;;;;;;;7.17;4.00;;;4.30;99.90;;;;;;4157540;28;20324;-62
2021/12/12 07:42:24;;;;;;;4.90;3.43;;;4.30;99.90;;;;;;4158753;28;20683;-62
2021/12/12 07:44:28;;;;;;;5.93;3.70;;;4.30;99.90;;;;;;4156711;28;20317;-66
2021/12/12 07:46:30;;;;;;;6.97;3.60;;;4.30;99.90;;;;;;4159039;28;20682;-62
2021/12/12 07:48:32;;;;;;;4.63;3.10;;;4.30;99.90;;;;;;4157324;28;20299;-64
2021/12/12 07:50:34;;;;;;;6.33;3.63;;;4.30;99.90;;;;;;4159048;28;21211;-66
2021/12/12 07:52:35;;;;;;;4.37;2.90;;;4.40;99.90;;;;;;4156883;28;20282;-62
2021/12/12 07:54:37;;;;;;;3.53;3.00;;;4.40;99.90;;;;;;4159121;28;20274;-63
2021/12/12 07:56:41;;;;;;;7.10;3.70;;;4.30;99.90;;;;;;4157564;28;20282;-65
2021/12/12 07:58:43;;;;;;;4.40;3.10;;;4.40;99.90;;;;;;4158994;28;20348;-63
2021/12/12 08:00:48;;;;;;;5.30;3.27;;;4.40;99.90;;;;;;4157804;28;20271;-63
2021/12/12 08:02:50;;;;;;;6.33;3.93;;;4.40;99.90;;;;;;4156941;28;20667;-62
2021/12/12 08:04:55;;;;;;;6.20;3.90;;;4.40;99.90;;;;;;4157668;28;20751;-63
2021/12/12 08:06:57;;;;;;;6.83;3.77;;;4.50;99.90;;;;;;4158724;28;20309;-63
2021/12/12 08:08:59;;;;;;;6.00;3.80;;;4.50;99.90;;;;;;4158109;28;20282;-63
2021/12/12 08:11:01;;;;;;;5.27;4.37;;;4.60;99.90;;;;;;4158225;28;20267;-64
2021/12/12 08:13:04;;;;;;;9.03;5.67;;;4.60;99.90;;;;;;4157765;28;20729;-63
2021/12/12 08:15:08;;;;;;;5.47;4.30;;;4.60;99.90;;;;;;4156837;28;20275;-67
2021/12/12 08:17:10;;;;;;;13.00;6.33;;;4.60;99.90;;;;;;4157724;28;20771;-63
2021/12/12 08:19:12;;;;;;;19.73;12.10;;;4.60;99.90;;;;;;4157095;28;20270;-63
2021/12/12 08:21:13;;;;;;;32.53;18.07;;;4.60;99.90;;;;;;4158842;28;20278;-62
2021/12/12 08:23:16;;;;;;;51.30;24.33;;;4.70;99.90;;;;;;4156560;28;20329;-63
2021/12/12 08:25:18;;;;;;;23.87;13.40;;;4.70;99.90;;;;;;4157959;28;20274;-63
2021/12/12 08:27:19;;;;;;;15.07;9.73;;;4.70;99.90;;;;;;4157129;28;20530;-68
2021/12/12 08:29:21;;;;;;;13.13;8.93;;;4.70;99.90;;;;;;4158281;28;20325;-62
2021/12/12 08:31:22;;;;;;;9.70;7.00;;;4.70;99.90;;;;;;4156787;28;20317;-62
2021/12/12 08:33:24;;;;;;;8.40;5.87;;;4.70;99.90;;;;;;4158347;28;20271;-63
2021/12/12 08:35:28;;;;;;;9.23;5.87;;;4.70;99.90;;;;;;4156594;28;20275;-62
2021/12/12 08:37:30;;;;;;;7.10;4.97;;;4.80;99.90;;;;;;4158341;28;20972;-65
2021/12/12 08:39:32;;;;;;;9.73;6.07;;;4.90;99.90;;;;;;4157155;28;20289;-63
2021/12/12 08:41:33;;;;;;;9.93;6.93;;;4.90;99.90;;;;;;4157296;28;20601;-63
2021/12/12 08:43:36;;;;;;;11.60;8.20;;;4.90;99.90;;;;;;4156556;28;20341;-62
2021/12/12 08:45:41;;;;;;;9.20;6.13;;;4.90;99.90;;;;;;4157631;28;20263;-62
2021/12/12 08:47:44;;;;;;;9.13;6.93;;;4.90;99.90;;;;;;4157466;28;20863;-62
2021/12/12 08:49:47;;;;;;;13.87;6.43;;;4.90;99.90;;;;;;4156681;28;20262;-62
2021/12/12 08:51:57;;;;;;;24.07;11.13;;;4.90;99.90;;;;;;4157729;28;20678;-62
2021/12/12 08:54:03;;;;;;;21.33;9.30;;;5.00;99.90;;;;;;4156305;28;20336;-62
2021/12/12 08:56:05;;;;;;;15.40;8.10;;;5.00;99.90;;;;;;4157380;28;20037;-62
2021/12/12 08:58:14;;;;;;;21.10;8.67;;;5.00;99.90;;;;;;4156545;28;20702;-68
2021/12/12 09:00:21;;;;;;;21.80;9.13;;;5.00;99.90;;;;;;4157505;28;20282;-63
2021/12/12 09:02:23;;;;;;;21.10;9.30;;;5.00;99.90;;;;;;4156588;28;20537;-63
2021/12/12 09:04:29;;;;;;;17.47;8.73;;;5.10;99.90;;;;;;4157480;28;20274;-63
2021/12/12 09:06:34;;;;;;;14.33;6.20;;;5.20;99.90;;;;;;4156091;28;20527;-64
2021/12/12 09:09:04;;;;;;;12.00;6.10;;;5.20;99.90;;;;;;4157580;28;20396;-67
2021/12/12 09:11:15;;;;;;;17.83;7.50;;;5.20;99.90;;;;;;4153606;28;20279;-63
2021/12/12 09:13:22;;;;;;;11.48;6.43;;;5.20;99.90;;;;;;4157462;28;20405;-63
2021/12/12 09:15:26;;;;;;;12.30;7.60;;;5.10;99.90;;;;;;4156467;28;20095;-64
2021/12/12 09:17:32;;;;;;;14.87;9.50;;;5.10;99.90;;;;;;4156295;28;20022;-63
2021/12/12 09:19:42;;;;;;;14.13;8.23;;;5.10;99.90;;;;;;4155775;28;20041;-62
2021/12/12 09:22:01;;;;;;;13.95;8.18;;;5.10;99.90;;;;;;4157387;28;20095;-65
2021/12/12 09:24:05;;;;;;;14.23;8.43;;;5.10;99.90;;;;;;4156084;28;20037;-62
2021/12/12 09:26:18;;;;;;;15.47;7.27;;;5.20;99.90;;;;;;4157878;28;20569;-62
2021/12/12 09:28:30;;;;;;;11.37;7.30;;;5.10;99.90;;;;;;4155962;28;20314;-61
2021/12/12 09:30:32;;;;;;;13.33;7.03;;;5.10;99.90;;;;;;4157025;28;20496;-67
2021/12/12 09:32:39;;;;;;;10.17;6.30;;;5.10;99.90;;;;;;4155837;28;20267;-63
2021/12/12 09:34:57;;;;;;;12.03;6.47;;;5.10;99.90;;;;;;4156915;28;20735;-62
2021/12/12 09:37:07;;;;;;;9.67;5.63;;;5.10;99.90;;;;;;4155916;28;20283;-62
2021/12/12 09:39:19;;;;;;;11.02;5.95;;;5.10;99.90;;;;;;4157631;28;20277;-62
2021/12/12 09:41:52;;;;;;;14.30;6.43;;;5.10;99.90;;;;;;4155859;28;20103;-62
2021/12/12 09:44:22;;;;;;;12.63;8.23;;;5.10;99.90;;;;;;4156837;28;20436;-63
2021/12/12 09:46:39;;;;;;;13.35;7.85;;;5.10;99.90;;;;;;4156899;28;20869;-63
2021/12/12 09:51:53;;;;;;;9.73;5.90;;;5.20;99.90;;;;;;4157374;28;20432;-63
2021/12/12 09:54:00;;;;;;;14.50;7.73;;;5.10;99.90;;;;;;4137327;28;20283;-63
2021/12/12 09:56:05;;;;;;;15.10;7.57;;;5.20;99.90;;;;;;4149275;28;20813;-62
2021/12/12 09:58:54;;;;;;;12.67;7.70;;;5.20;99.90;;;;;;4155837;28;20033;-72
2021/12/12 10:01:24;;;;;;;16.07;8.90;;;5.20;99.90;;;;;;4154769;28;20041;-62
2021/12/12 10:03:51;;;;;;;8.05;6.18;;;5.20;99.90;;;;;;4154630;28;20425;-63
2021/12/12 10:06:14;;;;;;;8.27;5.97;;;5.20;99.90;;;;;;4156139;28;20031;-66
2021/12/12 10:08:21;;;;;;;8.00;5.00;;;5.20;99.90;;;;;;4159946;28;20356;-67
2021/12/12 10:10:31;;;;;;;8.20;5.93;;;5.30;99.90;;;;;;4158761;28;20131;-76
2021/12/12 10:12:38;;;;;;;10.47;5.77;;;5.30;99.90;;;;;;4159969;28;20321;-68
2021/12/12 10:15:04;;;;;;;15.90;8.57;;;5.30;99.90;;;;;;4159369;28;20479;-71
2021/12/12 10:17:37;;;;;;;8.77;6.20;;;5.30;99.90;;;;;;4159975;28;20278;-65
2021/12/12 10:19:41;;;;;;;12.10;7.43;;;5.40;99.90;;;;;;4158225;28;20355;-66
2021/12/12 10:22:19;;;;;;;12.20;8.43;;;5.40;99.90;;;;;;4160380;28;20340;-75
2021/12/12 10:24:31;;;;;;;9.70;7.30;;;5.50;99.90;;;;;;4157546;28;20275;-62
2021/12/12 10:26:44;;;;;;;10.53;8.23;;;5.50;99.90;;;;;;4160008;28;20143;-74
2021/12/12 10:29:09;;;;;;;10.33;6.57;;;5.60;99.90;;;;;;4158792;28;20111;-70
2021/12/12 10:31:18;;;;;;;8.77;5.60;;;5.60;99.90;;;;;;4159385;28;20759;-64
2021/12/12 10:33:54;;;;;;;8.43;5.57;;;5.60;99.90;;;;;;4158251;28;20275;-63
2021/12/12 10:36:09;;;;;;;9.90;6.33;;;5.60;99.90;;;;;;4154132;28;20038;-63
2021/12/12 10:38:16;;;;;;;9.27;6.10;;;5.60;99.90;;;;;;4159926;28;20049;-64
2021/12/12 10:40:28;;;;;;;7.27;5.20;;;5.50;99.90;;;;;;4158113;28;20266;-64
2021/12/12 10:42:33;;;;;;;10.47;5.13;;;5.60;99.90;;;;;;4159038;28;20551;-63
2021/12/12 10:44:43;;;;;;;7.33;5.00;;;5.50;99.90;;;;;;4159009;28;20055;-66
2021/12/12 10:46:51;;;;;;;10.00;5.23;;;5.50;99.90;;;;;;4158617;28;20071;-65
2021/12/12 10:48:57;;;;;;;9.73;5.80;;;5.50;99.90;;;;;;4158178;28;20072;-63
2021/12/12 10:51:11;;;;;;;12.67;7.70;;;5.60;99.90;;;;;;4158613;28;20125;-63
2021/12/12 10:53:54;;;;;;;13.73;6.23;;;5.60;99.90;;;;;;4158292;28;20052;-63
2021/12/12 10:56:06;;;;;;;11.23;6.33;;;5.60;99.90;;;;;;4159558;28;20037;-65
2021/12/12 10:58:38;;;;;;;11.23;7.10;;;5.60;99.90;;;;;;4158296;28;20059;-62
2021/12/12 11:00:44;;;;;;;8.50;5.40;;;5.60;99.90;;;;;;4159518;28;20025;-62
2021/12/12 11:03:08;;;;;;;7.50;5.47;;;5.70;99.90;;;;;;4158570;28;20091;-68
2021/12/12 11:05:13;;;;;;;8.50;5.77;;;5.60;99.90;;;;;;4159086;28;20037;-63
2021/12/12 11:07:26;;;;;;;7.30;5.00;;;5.60;99.90;;;;;;4157429;28;20145;-62
2021/12/12 11:09:38;;;;;;;8.97;5.40;;;5.60;99.90;;;;;;4159283;28;20070;-65
2021/12/12 11:12:06;;;;;;;7.80;4.93;;;5.70;99.90;;;;;;4157360;28;20072;-67
2021/12/12 11:14:13;;;;;;;14.57;7.20;;;5.70;99.90;;;;;;4155177;28;20115;-63
2021/12/12 11:16:49;;;;;;;12.97;7.80;;;5.70;99.90;;;;;;4157399;28;20359;-68
2021/12/12 11:19:12;;;;;;;7.70;4.83;;;5.70;99.90;;;;;;4157220;28;20095;-64
2021/12/12 11:21:36;;;;;;;8.23;5.00;;;5.80;99.90;;;;;;4158074;28;20052;-63
2021/12/12 11:23:41;;;;;;;5.90;4.53;;;5.80;99.90;;;;;;4158252;28;20034;-62
2021/12/12 11:25:51;;;;;;;7.47;4.60;;;5.90;99.90;;;;;;4158160;28;20440;-65
2021/12/12 11:28:21;;;;;;;6.78;5.05;;;5.90;99.90;;;;;;4157784;28;20156;-65